sensor_id;sensor_type;location;lat;lon;timestamp;temperature;humidity
1015;DHT22;8170;48.118;11.628;2023-03-01T00:02:04;1.10;99.90
1015;DHT22;8170;48.118;11.628;2023-03-01T00:03:39;1.10;99.90
1015;DHT22;8170;48.118;11.628;2023-03-01T00:05:24;1.10;99.90
1015;DHT22;8170;48.118;11.628;2023-03-01T00:07:53;1.10;99.90
1015;DHT22;8170;48.118;11.628;2023-03-01T00:10:04;1.10;99.90
1015;DHT22;8170;48.118;11.628;2023-03-01T00:12:06;1.10;99.90
1015;DHT22;8170;48.118;11.628;2023-03-01T00:16:38;1.00;99.90
1015;DHT22;8170;48.118;11.628;2023-03-01T00:18:17;1.00;99.90
1015;DHT22;8170;48.118;11.628;2023-03-01T00:21:20;1.10;99.90
1015;DHT22;8170;48.118;11.628;2023-03-01T00:22:26;1.10;99.90
1015;DHT22;8170;48.118;11.628;2023-03-01T00:24:45;1.10;99.90
1015;DHT22;8170;48.118;11.628;2023-03-01T00:26:34;1.10;99.90
1015;DHT22;8170;48.118;11.628;2023-03-01T00:28:29;1.10;99.90
1015;DHT22;8170;48.118;11.628;2023-03-01T00:30:35;1.00;99.90
1015;DHT22;8170;48.118;11.628;2023-03-01T00:32:46;1.00;99.90
1015;DHT22;8170;48.118;11.628;2023-03-01T00:34:41;1.10;99.90
1015;DHT22;8170;48.118;11.628;2023-03-01T00:36:49;1.00;99.90
1015;DHT22;8170;48.118;11.628;2023-03-01T00:38:47;1.00;99.90
1015;DHT22;8170;48.118;11.628;2023-03-01T00:39:55;1.00;99.90
1015;DHT22;8170;48.118;11.628;2023-03-01T00:41:03;1.00;99.90
1015;DHT22;8170;48.118;11.628;2023-03-01T00:42:06;1.00;99.90
1015;DHT22;8170;48.118;11.628;2023-03-01T00:43:08;1.00;99.90
1015;DHT22;8170;48.118;11.628;2023-03-01T00:44:12;1.10;99.90
1015;DHT22;8170;48.118;11.628;2023-03-01T00:45:14;1.10;99.90
1015;DHT22;8170;48.118;11.628;2023-03-01T00:46:19;1.10;99.90
1015;DHT22;8170;48.118;11.628;2023-03-01T00:47:21;1.10;99.90
1015;DHT22;8170;48.118;11.628;2023-03-01T00:48:24;1.10;99.90
1015;DHT22;8170;48.118;11.628;2023-03-01T00:49:28;1.10;99.90
1015;DHT22;8170;48.118;11.628;2023-03-01T00:50:31;1.10;99.90
1015;DHT22;8170;48.118;11.628;2023-03-01T00:51:33;1.10;99.90
1015;DHT22;8170;48.118;11.628;2023-03-01T00:52:37;1.00;99.90
1015;DHT22;8170;48.118;11.628;2023-03-01T00:53:40;1.10;99.90
1015;DHT22;8170;48.118;11.628;2023-03-01T00:54:43;1.10;99.90
1015;DHT22;8170;48.118;11.628;2023-03-01T00:55:45;1.10;99.90
1015;DHT22;8170;48.118;11.628;2023-03-01T00:56:48;1.00;99.90
1015;DHT22;8170;48.118;11.628;2023-03-01T00:57:51;1.10;99.90
1015;DHT22;8170;48.118;11.628;2023-03-01T00:58:54;1.10;99.90
1015;DHT22;8170;48.118;11.628;2023-03-01T00:59:56;1.10;99.90
1015;DHT22;8170;48.118;11.628;2023-03-01T01:01:00;1.00;99.90
1015;DHT22;8170;48.118;11.628;2023-03-01T01:02:02;1.00;99.90
1015;DHT22;8170;48.118;11.628;2023-03-01T01:03:05;1.00;99.90
1015;DHT22;8170;48.118;11.628;2023-03-01T01:04:09;1.00;99.90
1015;DHT22;8170;48.118;11.628;2023-03-01T01:05:14;1.00;99.90
1015;DHT22;8170;48.118;11.628;2023-03-01T01:06:18;1.10;99.90
1015;DHT22;8170;48.118;11.628;2023-03-01T01:07:22;1.00;99.90
1015;DHT22;8170;48.118;11.628;2023-03-01T01:08:24;1.00;99.90
1015;DHT22;8170;48.118;11.628;2023-03-01T01:09:27;1.00;99.90
1015;DHT22;8170;48.118;11.628;2023-03-01T01:10:29;1.00;99.90
1015;DHT22;8170;48.118;11.628;2023-03-01T01:11:33;1.00;99.90
1015;DHT22;8170;48.118;11.628;2023-03-01T01:12:36;1.00;99.90
1015;DHT22;8170;48.118;11.628;2023-03-01T01:13:40;1.00;99.90
1015;DHT22;8170;48.118;11.628;2023-03-01T01:14:43;0.90;99.90
1015;DHT22;8170;48.118;11.628;2023-03-01T01:15:46;1.00;99.90
1015;DHT22;8170;48.118;11.628;2023-03-01T01:16:48;0.90;99.90
1015;DHT22;8170;48.118;11.628;2023-03-01T01:17:51;0.90;99.90
1015;DHT22;8170;48.118;11.628;2023-03-01T01:18:53;1.00;99.90
1015;DHT22;8170;48.118;11.628;2023-03-01T01:19:56;1.00;99.90
1015;DHT22;8170;48.118;11.628;2023-03-01T01:21:05;0.90;99.90
1015;DHT22;8170;48.118;11.628;2023-03-01T01:22:09;0.90;99.90
1015;DHT22;8170;48.118;11.628;2023-03-01T01:23:11;0.90;99.90
1015;DHT22;8170;48.118;11.628;2023-03-01T01:24:14;1.00;99.90
1015;DHT22;8170;48.118;11.628;2023-03-01T01:25:18;0.90;99.90
1015;DHT22;8170;48.118;11.628;2023-03-01T01:26:21;0.90;99.90
1015;DHT22;8170;48.118;11.628;2023-03-01T01:27:25;0.90;99.90
1015;DHT22;8170;48.118;11.628;2023-03-01T01:28:27;0.90;99.90
1015;DHT22;8170;48.118;11.628;2023-03-01T01:29:30;0.90;99.90
1015;DHT22;8170;48.118;11.628;2023-03-01T01:30:32;0.90;99.90
1015;DHT22;8170;48.118;11.628;2023-03-01T01:31:36;0.90;99.90
1015;DHT22;8170;48.118;11.628;2023-03-01T01:32:39;0.90;99.90
1015;DHT22;8170;48.118;11.628;2023-03-01T01:33:42;0.90;99.90
1015;DHT22;8170;48.118;11.628;2023-03-01T01:34:44;0.90;99.90
1015;DHT22;8170;48.118;11.628;2023-03-01T01:35:53;0.90;99.90
1015;DHT22;8170;48.118;11.628;2023-03-01T01:37:01;0.90;99.90
1015;DHT22;8170;48.118;11.628;2023-03-01T01:38:04;0.90;99.90
1015;DHT22;8170;48.118;11.628;2023-03-01T01:39:06;0.90;99.90
1015;DHT22;8170;48.118;11.628;2023-03-01T01:40:15;0.90;99.90
1015;DHT22;8170;48.118;11.628;2023-03-01T01:41:17;0.90;99.90
1015;DHT22;8170;48.118;11.628;2023-03-01T01:42:20;0.90;99.90
1015;DHT22;8170;48.118;11.628;2023-03-01T01:43:24;1.00;99.90
1015;DHT22;8170;48.118;11.628;2023-03-01T01:44:28;0.90;99.90
1015;DHT22;8170;48.118;11.628;2023-03-01T01:45:33;0.90;99.90
1015;DHT22;8170;48.118;11.628;2023-03-01T01:46:37;0.90;99.90
1015;DHT22;8170;48.118;11.628;2023-03-01T01:47:41;0.90;99.90
1015;DHT22;8170;48.118;11.628;2023-03-01T01:48:48;0.80;99.90
1015;DHT22;8170;48.118;11.628;2023-03-01T01:49:54;0.80;99.90
1015;DHT22;8170;48.118;11.628;2023-03-01T01:51:00;0.90;99.90
1015;DHT22;8170;48.118;11.628;2023-03-01T01:52:11;0.90;99.90
1015;DHT22;8170;48.118;11.628;2023-03-01T01:53:18;0.90;99.90
1015;DHT22;8170;48.118;11.628;2023-03-01T01:54:24;0.80;99.90
1015;DHT22;8170;48.118;11.628;2023-03-01T01:55:28;0.80;99.90
1015;DHT22;8170;48.118;11.628;2023-03-01T01:56:30;0.90;99.90
1015;DHT22;8170;48.118;11.628;2023-03-01T01:57:37;0.90;99.90
1015;DHT22;8170;48.118;11.628;2023-03-01T01:58:41;0.80;99.90
1015;DHT22;8170;48.118;11.628;2023-03-01T01:59:58;0.80;99.90
1015;DHT22;8170;48.118;11.628;2023-03-01T02:01:01;0.80;99.90
1015;DHT22;8170;48.118;11.628;2023-03-01T02:02:05;0.80;99.90
1015;DHT22;8170;48.118;11.628;2023-03-01T02:03:10;0.80;99.90
1015;DHT22;8170;48.118;11.628;2023-03-01T02:04:14;0.80;99.90
1015;DHT22;8170;48.118;11.628;2023-03-01T02:05:24;0.80;99.90
1015;DHT22;8170;48.118;11.628;2023-03-01T02:06:31;0.80;99.90
1015;DHT22;8170;48.118;11.628;2023-03-01T02:07:37;0.80;99.90
1015;DHT22;8170;48.118;11.628;2023-03-01T02:08:41;0.80;99.90
1015;DHT22;8170;48.118;11.628;2023-03-01T02:09:46;0.80;99.90
1015;DHT22;8170;48.118;11.628;2023-03-01T02:10:50;0.80;99.90
1015;DHT22;8170;48.118;11.628;2023-03-01T02:11:53;0.80;99.90
1015;DHT22;8170;48.118;11.628;2023-03-01T02:12:57;0.80;99.90
1015;DHT22;8170;48.118;11.628;2023-03-01T02:14:00;0.80;99.90
1015;DHT22;8170;48.118;11.628;2023-03-01T02:15:05;0.80;99.90
1015;DHT22;8170;48.118;11.628;2023-03-01T02:16:09;0.80;99.90
1015;DHT22;8170;48.118;11.628;2023-03-01T02:17:15;0.80;99.90
1015;DHT22;8170;48.118;11.628;2023-03-01T02:18:20;0.80;99.90
1015;DHT22;8170;48.118;11.628;2023-03-01T02:19:34;0.80;99.90
1015;DHT22;8170;48.118;11.628;2023-03-01T02:20:50;0.80;99.90
1015;DHT22;8170;48.118;11.628;2023-03-01T02:22:02;0.80;99.90
1015;DHT22;8170;48.118;11.628;2023-03-01T02:23:09;0.80;99.90
1015;DHT22;8170;48.118;11.628;2023-03-01T02:24:21;0.80;99.90
1015;DHT22;8170;48.118;11.628;2023-03-01T02:25:35;0.80;99.90
1015;DHT22;8170;48.118;11.628;2023-03-01T02:26:42;0.80;99.90
1015;DHT22;8170;48.118;11.628;2023-03-01T02:27:53;0.70;99.90
1015;DHT22;8170;48.118;11.628;2023-03-01T02:29:00;0.80;99.90
1015;DHT22;8170;48.118;11.628;2023-03-01T02:30:04;0.80;99.90
1015;DHT22;8170;48.118;11.628;2023-03-01T02:31:10;0.80;99.90
1015;DHT22;8170;48.118;11.628;2023-03-01T02:32:31;0.70;99.90
1015;DHT22;8170;48.118;11.628;2023-03-01T02:33:36;0.70;99.90
1015;DHT22;8170;48.118;11.628;2023-03-01T02:34:39;0.80;99.90
1015;DHT22;8170;48.118;11.628;2023-03-01T02:35:42;0.80;99.90
1015;DHT22;8170;48.118;11.628;2023-03-01T02:36:47;0.80;99.90
1015;DHT22;8170;48.118;11.628;2023-03-01T02:37:51;0.80;99.90
1015;DHT22;8170;48.118;11.628;2023-03-01T02:38:56;0.80;99.90
1015;DHT22;8170;48.118;11.628;2023-03-01T02:40:05;0.70;99.90
1015;DHT22;8170;48.118;11.628;2023-03-01T02:41:09;0.70;99.90
1015;DHT22;8170;48.118;11.628;2023-03-01T02:42:15;0.70;99.90
1015;DHT22;8170;48.118;11.628;2023-03-01T02:43:23;0.70;99.90
1015;DHT22;8170;48.118;11.628;2023-03-01T02:44:30;0.70;99.90
1015;DHT22;8170;48.118;11.628;2023-03-01T02:45:32;0.70;99.90
1015;DHT22;8170;48.118;11.628;2023-03-01T02:46:42;0.70;99.90
1015;DHT22;8170;48.118;11.628;2023-03-01T02:47:45;0.70;99.90
1015;DHT22;8170;48.118;11.628;2023-03-01T02:48:50;0.70;99.90
1015;DHT22;8170;48.118;11.628;2023-03-01T02:49:52;0.70;99.90
1015;DHT22;8170;48.118;11.628;2023-03-01T02:51:04;0.70;99.90
1015;DHT22;8170;48.118;11.628;2023-03-01T02:52:21;0.70;99.90
1015;DHT22;8170;48.118;11.628;2023-03-01T02:53:30;0.70;99.90
1015;DHT22;8170;48.118;11.628;2023-03-01T02:54:38;0.70;99.90
1015;DHT22;8170;48.118;11.628;2023-03-01T02:55:43;0.70;99.90
1015;DHT22;8170;48.118;11.628;2023-03-01T02:56:45;0.70;99.90
1015;DHT22;8170;48.118;11.628;2023-03-01T02:57:52;0.70;99.90
1015;DHT22;8170;48.118;11.628;2023-03-01T02:58:56;0.70;99.90
1015;DHT22;8170;48.118;11.628;2023-03-01T03:00:07;0.60;99.90
1015;DHT22;8170;48.118;11.628;2023-03-01T03:01:11;0.60;99.90
1015;DHT22;8170;48.118;11.628;2023-03-01T03:02:20;0.60;99.90
1015;DHT22;8170;48.118;11.628;2023-03-01T03:03:23;0.60;99.90
1015;DHT22;8170;48.118;11.628;2023-03-01T03:04:27;0.60;99.90
1015;DHT22;8170;48.118;11.628;2023-03-01T03:05:30;0.60;99.90
1015;DHT22;8170;48.118;11.628;2023-03-01T03:06:34;0.60;99.90
1015;DHT22;8170;48.118;11.628;2023-03-01T03:07:38;0.60;99.90
1015;DHT22;8170;48.118;11.628;2023-03-01T03:08:41;0.60;99.90
1015;DHT22;8170;48.118;11.628;2023-03-01T03:09:43;0.60;99.90
1015;DHT22;8170;48.118;11.628;2023-03-01T03:10:47;0.60;99.90
1015;DHT22;8170;48.118;11.628;2023-03-01T03:11:49;0.60;99.90
1015;DHT22;8170;48.118;11.628;2023-03-01T03:12:54;0.60;99.90
1015;DHT22;8170;48.118;11.628;2023-03-01T03:13:56;0.60;99.90
1015;DHT22;8170;48.118;11.628;2023-03-01T03:14:59;0.60;99.90
1015;DHT22;8170;48.118;11.628;2023-03-01T03:16:03;0.60;99.90
1015;DHT22;8170;48.118;11.628;2023-03-01T03:17:06;0.60;99.90
1015;DHT22;8170;48.118;11.628;2023-03-01T03:18:12;0.60;99.90
1015;DHT22;8170;48.118;11.628;2023-03-01T03:19:15;0.70;99.90
1015;DHT22;8170;48.118;11.628;2023-03-01T03:20:20;0.70;99.90
1015;DHT22;8170;48.118;11.628;2023-03-01T03:21:23;0.60;99.90
1015;DHT22;8170;48.118;11.628;2023-03-01T03:22:26;0.50;99.90
1015;DHT22;8170;48.118;11.628;2023-03-01T03:23:30;0.60;99.90
1015;DHT22;8170;48.118;11.628;2023-03-01T03:24:33;0.50;99.90
1015;DHT22;8170;48.118;11.628;2023-03-01T03:25:39;0.50;99.90
1015;DHT22;8170;48.118;11.628;2023-03-01T03:26:42;0.50;99.90
1015;DHT22;8170;48.118;11.628;2023-03-01T03:27:47;0.50;99.90
1015;DHT22;8170;48.118;11.628;2023-03-01T03:28:50;0.50;99.90
1015;DHT22;8170;48.118;11.628;2023-03-01T03:29:53;0.50;99.90
1015;DHT22;8170;48.118;11.628;2023-03-01T03:30:55;0.50;99.90
1015;DHT22;8170;48.118;11.628;2023-03-01T03:31:59;0.50;99.90
1015;DHT22;8170;48.118;11.628;2023-03-01T03:33:02;0.60;99.90
1015;DHT22;8170;48.118;11.628;2023-03-01T03:34:05;0.60;99.90
1015;DHT22;8170;48.118;11.628;2023-03-01T03:35:09;0.50;99.90
1015;DHT22;8170;48.118;11.628;2023-03-01T03:36:15;0.50;99.90
1015;DHT22;8170;48.118;11.628;2023-03-01T03:37:19;0.50;99.90
1015;DHT22;8170;48.118;11.628;2023-03-01T03:38:36;0.50;99.90
1015;DHT22;8170;48.118;11.628;2023-03-01T03:39:39;0.60;99.90
1015;DHT22;8170;48.118;11.628;2023-03-01T03:40:43;0.50;99.90
1015;DHT22;8170;48.118;11.628;2023-03-01T03:41:45;0.50;99.90
1015;DHT22;8170;48.118;11.628;2023-03-01T03:42:48;0.50;99.90
1015;DHT22;8170;48.118;11.628;2023-03-01T03:43:50;0.50;99.90
1015;DHT22;8170;48.118;11.628;2023-03-01T03:44:53;0.50;99.90
1015;DHT22;8170;48.118;11.628;2023-03-01T03:45:55;0.50;99.90
1015;DHT22;8170;48.118;11.628;2023-03-01T03:47:01;0.50;99.90
1015;DHT22;8170;48.118;11.628;2023-03-01T03:48:04;0.50;99.90
1015;DHT22;8170;48.118;11.628;2023-03-01T03:49:08;0.50;99.90
1015;DHT22;8170;48.118;11.628;2023-03-01T03:50:12;0.60;99.90
1015;DHT22;8170;48.118;11.628;2023-03-01T03:51:16;0.50;99.90
1015;DHT22;8170;48.118;11.628;2023-03-01T03:52:19;0.50;99.90
1015;DHT22;8170;48.118;11.628;2023-03-01T03:53:23;0.50;99.90
1015;DHT22;8170;48.118;11.628;2023-03-01T03:54:26;0.50;99.90
1015;DHT22;8170;48.118;11.628;2023-03-01T03:55:28;0.50;99.90
1015;DHT22;8170;48.118;11.628;2023-03-01T03:56:32;0.50;99.90
1015;DHT22;8170;48.118;11.628;2023-03-01T03:57:35;0.40;99.90
1015;DHT22;8170;48.118;11.628;2023-03-01T03:58:38;0.40;99.90
1015;DHT22;8170;48.118;11.628;2023-03-01T03:59:40;0.40;99.90
1015;DHT22;8170;48.118;11.628;2023-03-01T04:00:44;0.40;99.90
1015;DHT22;8170;48.118;11.628;2023-03-01T04:01:47;0.40;99.90
1015;DHT22;8170;48.118;11.628;2023-03-01T04:02:51;0.30;99.90
1015;DHT22;8170;48.118;11.628;2023-03-01T04:03:58;0.30;99.90
1015;DHT22;8170;48.118;11.628;2023-03-01T04:05:06;0.30;99.90
1015;DHT22;8170;48.118;11.628;2023-03-01T04:06:09;0.30;99.90
1015;DHT22;8170;48.118;11.628;2023-03-01T04:07:12;0.30;99.90
1015;DHT22;8170;48.118;11.628;2023-03-01T04:08:14;0.30;99.90
1015;DHT22;8170;48.118;11.628;2023-03-01T04:09:18;0.30;99.90
1015;DHT22;8170;48.118;11.628;2023-03-01T04:10:20;0.30;99.90
1015;DHT22;8170;48.118;11.628;2023-03-01T04:11:23;0.20;99.90
1015;DHT22;8170;48.118;11.628;2023-03-01T04:12:28;0.20;99.90
1015;DHT22;8170;48.118;11.628;2023-03-01T04:13:31;0.20;99.90
1015;DHT22;8170;48.118;11.628;2023-03-01T04:14:34;0.20;99.90
1015;DHT22;8170;48.118;11.628;2023-03-01T04:15:37;0.30;99.90
1015;DHT22;8170;48.118;11.628;2023-03-01T04:16:39;0.20;99.90
1015;DHT22;8170;48.118;11.628;2023-03-01T04:17:44;0.30;99.90
1015;DHT22;8170;48.118;11.628;2023-03-01T04:18:48;0.30;99.90
1015;DHT22;8170;48.118;11.628;2023-03-01T04:19:51;0.20;99.90
1015;DHT22;8170;48.118;11.628;2023-03-01T04:20:53;0.20;99.90
1015;DHT22;8170;48.118;11.628;2023-03-01T04:21:57;0.30;99.90
1015;DHT22;8170;48.118;11.628;2023-03-01T04:23:02;0.20;99.90
1015;DHT22;8170;48.118;11.628;2023-03-01T04:24:12;0.20;99.90
1015;DHT22;8170;48.118;11.628;2023-03-01T04:25:15;0.20;99.90
1015;DHT22;8170;48.118;11.628;2023-03-01T04:26:17;0.20;99.90
1015;DHT22;8170;48.118;11.628;2023-03-01T04:27:20;0.20;99.90
1015;DHT22;8170;48.118;11.628;2023-03-01T04:28:24;0.20;99.90
1015;DHT22;8170;48.118;11.628;2023-03-01T04:29:27;0.20;99.90
1015;DHT22;8170;48.118;11.628;2023-03-01T04:30:29;0.20;99.90
1015;DHT22;8170;48.118;11.628;2023-03-01T04:31:37;0.10;99.90
1015;DHT22;8170;48.118;11.628;2023-03-01T04:32:39;0.20;99.90
1015;DHT22;8170;48.118;11.628;2023-03-01T04:33:44;0.10;99.90
1015;DHT22;8170;48.118;11.628;2023-03-01T04:34:47;0.10;99.90
1015;DHT22;8170;48.118;11.628;2023-03-01T04:35:51;0.10;99.90
1015;DHT22;8170;48.118;11.628;2023-03-01T04:36:53;0.10;99.90
1015;DHT22;8170;48.118;11.628;2023-03-01T04:37:56;0.00;99.90
1015;DHT22;8170;48.118;11.628;2023-03-01T04:38:58;0.00;99.90
1015;DHT22;8170;48.118;11.628;2023-03-01T04:40:02;0.00;99.90
1015;DHT22;8170;48.118;11.628;2023-03-01T04:41:15;0.00;99.90
1015;DHT22;8170;48.118;11.628;2023-03-01T04:42:19;0.00;99.90
1015;DHT22;8170;48.118;11.628;2023-03-01T04:43:21;0.00;99.90
1015;DHT22;8170;48.118;11.628;2023-03-01T04:44:24;0.00;99.90
1015;DHT22;8170;48.118;11.628;2023-03-01T04:45:26;0.00;99.90
1015;DHT22;8170;48.118;11.628;2023-03-01T04:46:29;0.00;99.90
1015;DHT22;8170;48.118;11.628;2023-03-01T04:47:32;0.00;99.90
1015;DHT22;8170;48.118;11.628;2023-03-01T04:48:35;-0.10;99.90
1015;DHT22;8170;48.118;11.628;2023-03-01T04:49:38;0.00;99.90
1015;DHT22;8170;48.118;11.628;2023-03-01T04:50:42;0.00;99.90
1015;DHT22;8170;48.118;11.628;2023-03-01T04:51:44;-0.10;99.90
1015;DHT22;8170;48.118;11.628;2023-03-01T04:52:47;0.00;99.90
1015;DHT22;8170;48.118;11.628;2023-03-01T04:53:50;-0.10;99.90
1015;DHT22;8170;48.118;11.628;2023-03-01T04:54:53;-0.10;99.90
1015;DHT22;8170;48.118;11.628;2023-03-01T04:55:55;-0.10;99.90
1015;DHT22;8170;48.118;11.628;2023-03-01T04:56:59;-0.10;99.90
1015;DHT22;8170;48.118;11.628;2023-03-01T04:58:02;-0.20;99.90
1015;DHT22;8170;48.118;11.628;2023-03-01T04:59:05;-0.20;99.90
1015;DHT22;8170;48.118;11.628;2023-03-01T05:00:10;-0.20;99.90
1015;DHT22;8170;48.118;11.628;2023-03-01T05:01:22;-0.20;99.90
1015;DHT22;8170;48.118;11.628;2023-03-01T05:02:25;-0.20;99.90
1015;DHT22;8170;48.118;11.628;2023-03-01T05:03:28;-0.20;99.90
1015;DHT22;8170;48.118;11.628;2023-03-01T05:04:31;-0.10;99.90
1015;DHT22;8170;48.118;11.628;2023-03-01T05:05:34;-0.20;99.90
1015;DHT22;8170;48.118;11.628;2023-03-01T05:06:39;-0.10;99.90
1015;DHT22;8170;48.118;11.628;2023-03-01T05:07:41;-0.10;99.90
1015;DHT22;8170;48.118;11.628;2023-03-01T05:08:45;-0.20;99.90
1015;DHT22;8170;48.118;11.628;2023-03-01T05:09:48;-0.20;99.90
1015;DHT22;8170;48.118;11.628;2023-03-01T05:10:52;-0.20;99.90
1015;DHT22;8170;48.118;11.628;2023-03-01T05:11:55;-0.30;99.90
1015;DHT22;8170;48.118;11.628;2023-03-01T05:12:57;-0.30;99.90
1015;DHT22;8170;48.118;11.628;2023-03-01T05:14:01;-0.30;99.90
1015;DHT22;8170;48.118;11.628;2023-03-01T05:15:03;-0.30;99.90
1015;DHT22;8170;48.118;11.628;2023-03-01T05:16:09;-0.30;99.90
1015;DHT22;8170;48.118;11.628;2023-03-01T05:17:13;-0.40;99.90
1015;DHT22;8170;48.118;11.628;2023-03-01T05:18:15;-0.40;99.90
1015;DHT22;8170;48.118;11.628;2023-03-01T05:19:18;-0.40;99.90
1015;DHT22;8170;48.118;11.628;2023-03-01T05:20:25;-0.40;99.90
1015;DHT22;8170;48.118;11.628;2023-03-01T05:21:28;-0.40;99.90
1015;DHT22;8170;48.118;11.628;2023-03-01T05:22:31;-0.40;99.90
1015;DHT22;8170;48.118;11.628;2023-03-01T05:23:35;-0.40;99.90
1015;DHT22;8170;48.118;11.628;2023-03-01T05:24:37;-0.40;99.90
1015;DHT22;8170;48.118;11.628;2023-03-01T05:25:41;-0.50;99.90
1015;DHT22;8170;48.118;11.628;2023-03-01T05:26:44;-0.50;99.90
1015;DHT22;8170;48.118;11.628;2023-03-01T05:27:47;-0.50;99.90
1015;DHT22;8170;48.118;11.628;2023-03-01T05:28:51;-0.50;99.90
1015;DHT22;8170;48.118;11.628;2023-03-01T05:29:53;-0.50;99.90
1015;DHT22;8170;48.118;11.628;2023-03-01T05:30:56;-0.50;99.90
1015;DHT22;8170;48.118;11.628;2023-03-01T05:32:00;-0.50;99.90
1015;DHT22;8170;48.118;11.628;2023-03-01T05:33:04;-0.50;99.90
1015;DHT22;8170;48.118;11.628;2023-03-01T05:34:07;-0.50;99.90
1015;DHT22;8170;48.118;11.628;2023-03-01T05:35:11;-0.50;99.90
1015;DHT22;8170;48.118;11.628;2023-03-01T05:36:14;-0.50;99.90
1015;DHT22;8170;48.118;11.628;2023-03-01T05:37:18;-0.50;99.90
1015;DHT22;8170;48.118;11.628;2023-03-01T05:38:22;-0.50;99.90
1015;DHT22;8170;48.118;11.628;2023-03-01T05:39:27;-0.50;99.90
1015;DHT22;8170;48.118;11.628;2023-03-01T05:40:29;-0.60;99.90
1015;DHT22;8170;48.118;11.628;2023-03-01T05:41:32;-0.50;99.90
1015;DHT22;8170;48.118;11.628;2023-03-01T05:42:34;-0.50;99.90
1015;DHT22;8170;48.118;11.628;2023-03-01T05:43:38;-0.50;99.90
1015;DHT22;8170;48.118;11.628;2023-03-01T05:44:43;-0.50;99.90
1015;DHT22;8170;48.118;11.628;2023-03-01T05:45:46;-0.60;99.90
1015;DHT22;8170;48.118;11.628;2023-03-01T05:46:49;-0.60;99.90
1015;DHT22;8170;48.118;11.628;2023-03-01T05:47:52;-0.60;99.90
1015;DHT22;8170;48.118;11.628;2023-03-01T05:48:56;-0.60;99.90
1015;DHT22;8170;48.118;11.628;2023-03-01T05:49:58;-0.60;99.90
1015;DHT22;8170;48.118;11.628;2023-03-01T05:51:02;-0.60;99.90
1015;DHT22;8170;48.118;11.628;2023-03-01T05:52:04;-0.60;99.90
1015;DHT22;8170;48.118;11.628;2023-03-01T05:53:10;-0.60;99.90
1015;DHT22;8170;48.118;11.628;2023-03-01T05:54:14;-0.70;99.90
1015;DHT22;8170;48.118;11.628;2023-03-01T05:55:19;-0.60;99.90
1015;DHT22;8170;48.118;11.628;2023-03-01T05:56:21;-0.60;99.90
1015;DHT22;8170;48.118;11.628;2023-03-01T05:57:25;-0.60;99.90
1015;DHT22;8170;48.118;11.628;2023-03-01T05:58:29;-0.70;99.90
1015;DHT22;8170;48.118;11.628;2023-03-01T05:59:32;-0.70;99.90
1015;DHT22;8170;48.118;11.628;2023-03-01T06:00:34;-0.60;99.90
1015;DHT22;8170;48.118;11.628;2023-03-01T06:01:38;-0.70;99.90
1015;DHT22;8170;48.118;11.628;2023-03-01T06:02:40;-0.70;99.90
1015;DHT22;8170;48.118;11.628;2023-03-01T06:03:44;-0.60;99.90
1015;DHT22;8170;48.118;11.628;2023-03-01T06:04:46;-0.70;99.90
1015;DHT22;8170;48.118;11.628;2023-03-01T06:05:49;-0.60;99.90
1015;DHT22;8170;48.118;11.628;2023-03-01T06:06:51;-0.60;99.90
1015;DHT22;8170;48.118;11.628;2023-03-01T06:07:55;-0.70;99.90
1015;DHT22;8170;48.118;11.628;2023-03-01T06:09:00;-0.70;99.90
1015;DHT22;8170;48.118;11.628;2023-03-01T06:10:07;-0.70;99.90
1015;DHT22;8170;48.118;11.628;2023-03-01T06:11:10;-0.70;99.90
1015;DHT22;8170;48.118;11.628;2023-03-01T06:12:13;-0.70;99.90
1015;DHT22;8170;48.118;11.628;2023-03-01T06:13:15;-0.70;99.90
1015;DHT22;8170;48.118;11.628;2023-03-01T06:14:18;-0.70;99.90
1015;DHT22;8170;48.118;11.628;2023-03-01T06:15:22;-0.60;99.90
1015;DHT22;8170;48.118;11.628;2023-03-01T06:16:26;-0.70;99.90
1015;DHT22;8170;48.118;11.628;2023-03-01T06:17:30;-0.70;99.90
1015;DHT22;8170;48.118;11.628;2023-03-01T06:18:33;-0.70;99.90
1015;DHT22;8170;48.118;11.628;2023-03-01T06:19:36;-0.70;99.90
1015;DHT22;8170;48.118;11.628;2023-03-01T06:20:39;-0.70;99.90
1015;DHT22;8170;48.118;11.628;2023-03-01T06:21:42;-0.70;99.90
1015;DHT22;8170;48.118;11.628;2023-03-01T06:22:44;-0.70;99.90
1015;DHT22;8170;48.118;11.628;2023-03-01T06:23:48;-0.70;99.90
1015;DHT22;8170;48.118;11.628;2023-03-01T06:24:50;-0.70;99.90
1015;DHT22;8170;48.118;11.628;2023-03-01T06:25:54;-0.60;99.90
1015;DHT22;8170;48.118;11.628;2023-03-01T06:26:57;-0.70;99.90
1015;DHT22;8170;48.118;11.628;2023-03-01T06:28:00;-0.70;99.90
1015;DHT22;8170;48.118;11.628;2023-03-01T06:29:03;-0.70;99.90
1015;DHT22;8170;48.118;11.628;2023-03-01T06:30:06;-0.70;99.90
1015;DHT22;8170;48.118;11.628;2023-03-01T06:31:09;-0.70;99.90
1015;DHT22;8170;48.118;11.628;2023-03-01T06:32:12;-0.70;99.90
1015;DHT22;8170;48.118;11.628;2023-03-01T06:33:16;-0.70;99.90
1015;DHT22;8170;48.118;11.628;2023-03-01T06:34:20;-0.70;99.90
1015;DHT22;8170;48.118;11.628;2023-03-01T06:35:23;-0.60;99.90
1015;DHT22;8170;48.118;11.628;2023-03-01T06:36:31;-0.60;99.90
1015;DHT22;8170;48.118;11.628;2023-03-01T06:37:33;-0.60;99.90
1015;DHT22;8170;48.118;11.628;2023-03-01T06:38:37;-0.60;99.90
1015;DHT22;8170;48.118;11.628;2023-03-01T06:39:39;-0.60;99.90
1015;DHT22;8170;48.118;11.628;2023-03-01T06:40:42;-0.60;99.90
1015;DHT22;8170;48.118;11.628;2023-03-01T06:41:47;-0.60;99.90
1015;DHT22;8170;48.118;11.628;2023-03-01T06:42:50;-0.60;99.90
1015;DHT22;8170;48.118;11.628;2023-03-01T06:43:53;-0.60;99.90
1015;DHT22;8170;48.118;11.628;2023-03-01T06:44:56;-0.60;99.90
1015;DHT22;8170;48.118;11.628;2023-03-01T06:45:58;-0.60;99.90
1015;DHT22;8170;48.118;11.628;2023-03-01T06:47:02;-0.60;99.90
1015;DHT22;8170;48.118;11.628;2023-03-01T06:48:06;-0.60;99.90
1015;DHT22;8170;48.118;11.628;2023-03-01T06:49:09;-0.60;99.90
1015;DHT22;8170;48.118;11.628;2023-03-01T06:50:11;-0.60;99.90
1015;DHT22;8170;48.118;11.628;2023-03-01T06:51:15;-0.60;99.90
1015;DHT22;8170;48.118;11.628;2023-03-01T06:52:18;-0.60;99.90
1015;DHT22;8170;48.118;11.628;2023-03-01T06:53:21;-0.50;99.90
1015;DHT22;8170;48.118;11.628;2023-03-01T06:54:23;-0.50;99.90
1015;DHT22;8170;48.118;11.628;2023-03-01T06:55:27;-0.50;99.90
1015;DHT22;8170;48.118;11.628;2023-03-01T06:56:29;-0.50;99.90
1015;DHT22;8170;48.118;11.628;2023-03-01T06:57:34;-0.50;99.90
1015;DHT22;8170;48.118;11.628;2023-03-01T06:58:37;-0.40;99.90
1015;DHT22;8170;48.118;11.628;2023-03-01T06:59:40;-0.40;99.90
1015;DHT22;8170;48.118;11.628;2023-03-01T07:00:43;-0.40;99.90
1015;DHT22;8170;48.118;11.628;2023-03-01T07:01:46;-0.40;99.90
1015;DHT22;8170;48.118;11.628;2023-03-01T07:02:49;-0.40;99.90
1015;DHT22;8170;48.118;11.628;2023-03-01T07:03:51;-0.40;99.90
1015;DHT22;8170;48.118;11.628;2023-03-01T07:04:54;-0.40;99.90
1015;DHT22;8170;48.118;11.628;2023-03-01T07:05:56;-0.40;99.90
1015;DHT22;8170;48.118;11.628;2023-03-01T07:07:00;-0.40;99.90
1015;DHT22;8170;48.118;11.628;2023-03-01T07:08:02;-0.40;99.90
1015;DHT22;8170;48.118;11.628;2023-03-01T07:09:05;-0.40;99.90
1015;DHT22;8170;48.118;11.628;2023-03-01T07:10:09;-0.40;99.90
1015;DHT22;8170;48.118;11.628;2023-03-01T07:11:12;-0.40;99.90
1015;DHT22;8170;48.118;11.628;2023-03-01T07:12:16;-0.40;99.90
1015;DHT22;8170;48.118;11.628;2023-03-01T07:13:19;-0.40;99.90
1015;DHT22;8170;48.118;11.628;2023-03-01T07:14:23;-0.40;99.90
1015;DHT22;8170;48.118;11.628;2023-03-01T07:15:27;-0.40;99.90
1015;DHT22;8170;48.118;11.628;2023-03-01T07:16:30;-0.40;99.90